createdAt,value
2023-05-03T00:01:09.640Z,4.26
2023-05-03T00:03:36.062Z,4.17
2023-05-03T00:06:12.565Z,4.10
2023-05-03T00:08:39.041Z,3.88
2023-05-03T00:11:05.513Z,3.78
2023-05-03T00:13:31.895Z,3.70
2023-05-03T00:15:58.234Z,3.57
2023-05-03T00:18:24.549Z,3.44
2023-05-03T00:20:50.850Z,3.34
2023-05-03T00:23:17.152Z,3.29
2023-05-03T00:25:43.458Z,3.30
2023-05-03T00:28:09.813Z,3.36
2023-05-03T00:30:36.213Z,3.21
2023-05-03T00:33:02.548Z,3.09
2023-05-03T00:35:28.874Z,3.19
2023-05-03T00:37:55.182Z,3.03
2023-05-03T00:40:21.481Z,3.00
2023-05-03T00:42:47.788Z,2.90
2023-05-03T00:45:14.082Z,2.85
2023-05-03T00:47:40.595Z,2.85
2023-05-03T00:50:08.214Z,2.85
2023-05-03T00:52:34.615Z,2.83
2023-05-03T00:55:01.563Z,2.79
2023-05-03T00:57:29.426Z,2.71
2023-05-03T00:59:57.544Z,2.62
2023-05-03T01:02:23.989Z,2.48
2023-05-03T01:04:51.377Z,2.41
2023-05-03T01:07:55.603Z,2.34
2023-05-03T01:10:36.152Z,2.26
2023-05-03T01:13:08.440Z,2.19
2023-05-03T01:15:46.253Z,2.16
2023-05-03T01:18:19.056Z,2.10
2023-05-03T01:20:48.520Z,1.90
2023-05-03T01:23:28.256Z,1.94
2023-05-03T01:25:54.556Z,1.94
2023-05-03T01:28:20.956Z,2.00
2023-05-03T01:30:50.356Z,1.87
2023-05-03T01:33:30.233Z,1.68
2023-05-03T01:36:18.301Z,1.57
2023-05-03T01:38:45.044Z,1.51
2023-05-03T01:41:13.657Z,1.53
2023-05-03T01:43:40.403Z,1.51
2023-05-03T01:46:06.814Z,1.44
2023-05-03T01:48:33.246Z,1.42
2023-05-03T01:50:59.546Z,1.37
2023-05-03T01:53:25.942Z,1.37
2023-05-03T01:55:52.234Z,1.32
2023-05-03T01:58:18.535Z,1.25
2023-05-03T02:00:45.443Z,1.23
2023-05-03T02:03:12.135Z,1.28
2023-05-03T02:05:38.687Z,1.27
2023-05-03T02:08:05.037Z,1.18
2023-05-03T02:10:31.363Z,1.08
2023-05-03T02:12:57.693Z,1.08
2023-05-03T02:15:24.021Z,1.09
2023-05-03T02:17:50.504Z,1.24
2023-05-03T02:20:16.926Z,1.24
2023-05-03T02:22:43.277Z,1.20
2023-05-03T02:25:09.618Z,1.17
2023-05-03T02:27:36.002Z,1.24
2023-05-03T02:30:02.771Z,1.26
2023-05-03T02:32:29.295Z,1.25
2023-05-03T02:34:55.601Z,1.23
2023-05-03T02:37:21.957Z,1.29
2023-05-03T02:39:48.276Z,1.32
2023-05-03T02:42:14.678Z,1.22
2023-05-03T02:44:41.160Z,1.14
2023-05-03T02:47:07.486Z,1.08
2023-05-03T02:49:33.805Z,1.02
2023-05-03T02:52:00.121Z,0.97
2023-05-03T02:54:26.487Z,0.95
2023-05-03T02:56:52.802Z,0.95
2023-05-03T02:59:19.117Z,0.89
2023-05-03T03:01:46.815Z,0.83
2023-05-03T03:04:13.216Z,0.75
2023-05-03T03:06:39.778Z,0.87
2023-05-03T03:09:06.181Z,0.87
2023-05-03T03:11:33.070Z,0.79
2023-05-03T03:13:59.363Z,0.73
2023-05-03T03:16:25.726Z,0.61
2023-05-03T03:18:52.025Z,0.61
2023-05-03T03:21:18.438Z,0.57
2023-05-03T03:23:44.763Z,0.53
2023-05-03T03:26:11.064Z,0.56
2023-05-03T03:28:37.374Z,0.60
2023-05-03T03:31:03.734Z,0.59
2023-05-03T03:33:30.059Z,0.62
2023-05-03T03:35:56.376Z,0.58
2023-05-03T03:38:22.698Z,0.45
2023-05-03T03:40:49.101Z,0.50
2023-05-03T03:43:15.404Z,0.43
2023-05-03T03:45:41.704Z,0.36
2023-05-03T03:48:08.107Z,0.43
2023-05-03T03:50:34.442Z,0.46
2023-05-03T03:53:00.809Z,0.45
2023-05-03T03:55:27.136Z,0.42
2023-05-03T03:57:53.450Z,0.41
2023-05-03T04:00:19.821Z,0.45
2023-05-03T04:02:47.299Z,0.56
2023-05-03T04:05:14.012Z,0.51
2023-05-03T04:07:40.334Z,0.47
2023-05-03T04:10:07.238Z,0.47
2023-05-03T04:12:33.544Z,0.59
2023-05-03T04:14:59.848Z,0.73
2023-05-03T04:17:26.201Z,0.73
2023-05-03T04:19:52.517Z,0.75
2023-05-03T04:22:18.814Z,0.86
2023-05-03T04:24:45.116Z,0.95
2023-05-03T04:27:11.421Z,1.00
2023-05-03T04:29:37.733Z,1.06
2023-05-03T04:32:04.349Z,1.21
2023-05-03T04:34:30.683Z,1.41
2023-05-03T04:36:57.015Z,1.68
2023-05-03T04:39:23.352Z,2.15
2023-05-03T04:41:49.657Z,2.51
2023-05-03T04:44:15.973Z,2.85
2023-05-03T04:46:42.345Z,3.25
2023-05-03T04:49:08.959Z,3.58
2023-05-03T04:51:35.270Z,3.99
2023-05-03T04:54:01.585Z,4.22
2023-05-03T04:56:27.940Z,4.44
2023-05-03T04:58:54.268Z,4.59
2023-05-03T05:01:20.640Z,4.25
2023-05-03T05:03:46.982Z,3.86
2023-05-03T05:06:13.439Z,3.53
2023-05-03T05:08:39.782Z,3.37
2023-05-03T05:11:06.114Z,3.34
2023-05-03T05:13:32.502Z,3.33
2023-05-03T05:15:58.807Z,3.33
2023-05-03T05:18:25.163Z,3.27
2023-05-03T05:20:51.529Z,3.23
2023-05-03T05:23:17.835Z,3.33
2023-05-03T05:25:45.057Z,3.36
2023-05-03T05:28:11.362Z,3.63
2023-05-03T05:30:37.694Z,4.00
2023-05-03T05:33:04.031Z,5.26
2023-05-03T05:35:30.416Z,7.22
2023-05-03T05:37:56.777Z,8.78
2023-05-03T05:40:23.101Z,9.99
2023-05-03T05:42:49.475Z,10.60
2023-05-03T05:45:15.829Z,10.77
2023-05-03T05:47:42.208Z,11.09
2023-05-03T05:50:17.088Z,11.78
2023-05-03T05:52:44.767Z,12.55
2023-05-03T05:55:11.211Z,13.18
2023-05-03T05:57:37.541Z,13.47
2023-05-03T06:00:04.399Z,13.42
2023-05-03T06:02:31.311Z,13.76
2023-05-03T06:04:57.721Z,14.30
2023-05-03T06:07:24.034Z,14.76
2023-05-03T06:09:50.361Z,14.85
2023-05-03T06:12:16.683Z,14.89
2023-05-03T06:14:55.309Z,15.37
2023-05-03T06:17:27.546Z,15.81
2023-05-03T06:19:53.906Z,15.93
2023-05-03T06:22:20.222Z,15.84
2023-05-03T06:24:46.538Z,15.82
2023-05-03T06:27:12.884Z,15.74
2023-05-03T06:29:39.193Z,15.35
2023-05-03T06:32:05.824Z,15.21
2023-05-03T06:34:32.171Z,14.38
2023-05-03T06:36:58.487Z,13.67
2023-05-03T06:39:24.795Z,12.17
2023-05-03T06:41:51.093Z,11.63
2023-05-03T06:44:17.414Z,10.37
2023-05-03T06:46:43.801Z,8.27
2023-05-03T06:49:10.214Z,9.12
2023-05-03T06:51:36.705Z,8.84
2023-05-03T06:54:03.587Z,8.89
2023-05-03T06:56:29.918Z,9.71
2023-05-03T06:58:56.228Z,9.25
2023-05-03T07:01:22.572Z,8.01
2023-05-03T07:03:48.988Z,8.37
2023-05-03T07:06:15.412Z,8.83
2023-05-03T07:08:41.776Z,8.00
2023-05-03T07:11:08.106Z,7.61
2023-05-03T07:13:34.446Z,7.31
2023-05-03T07:16:03.344Z,7.22
2023-05-03T07:18:30.069Z,7.57
2023-05-03T07:20:56.360Z,7.64
2023-05-03T07:23:22.676Z,7.65
2023-05-03T07:25:49.010Z,7.62
2023-05-03T07:28:16.520Z,7.09
2023-05-03T07:30:42.847Z,7.59
2023-05-03T07:33:09.253Z,6.88
2023-05-03T07:35:35.645Z,7.34
2023-05-03T07:38:02.127Z,7.46
2023-05-03T07:40:28.478Z,7.49
2023-05-03T07:42:54.812Z,7.02
2023-05-03T07:45:21.159Z,7.37
2023-05-03T07:47:47.524Z,7.35
2023-05-03T07:50:14.016Z,8.24
2023-05-03T07:52:40.330Z,8.25
2023-05-03T07:55:07.391Z,8.63
2023-05-03T07:57:33.718Z,9.10
2023-05-03T08:00:00.104Z,8.95
2023-05-03T08:02:26.777Z,8.91
2023-05-03T08:04:53.522Z,9.09
2023-05-03T08:07:20.639Z,9.53
2023-05-03T08:09:46.975Z,9.42
2023-05-03T08:12:13.269Z,9.83
2023-05-03T08:14:39.619Z,9.63
2023-05-03T08:17:05.937Z,9.07
2023-05-03T08:19:32.261Z,8.94
2023-05-03T08:21:58.572Z,8.82
2023-05-03T08:24:24.921Z,8.86
2023-05-03T08:26:51.326Z,9.34
2023-05-03T08:29:17.651Z,9.58
2023-05-03T08:31:43.983Z,9.62
2023-05-03T08:34:10.314Z,9.47
2023-05-03T08:36:37.172Z,10.17
2023-05-03T08:39:04.156Z,10.78
2023-05-03T08:41:31.751Z,9.98
2023-05-03T08:44:00.887Z,9.43
2023-05-03T08:46:28.305Z,9.36
2023-05-03T08:48:55.209Z,9.24
2023-05-03T08:51:23.693Z,9.31
2023-05-03T08:53:50.433Z,9.56
2023-05-03T08:56:24.177Z,9.77
2023-05-03T08:58:50.576Z,9.28
2023-05-03T09:01:16.939Z,9.36
2023-05-03T09:03:49.954Z,9.20
2023-05-03T09:06:23.756Z,9.07
2023-05-03T09:08:50.105Z,8.78
2023-05-03T09:11:26.855Z,9.32
2023-05-03T09:13:53.509Z,9.70
2023-05-03T09:16:24.857Z,10.35
2023-05-03T09:19:01.460Z,10.88
2023-05-03T09:21:28.977Z,10.86
2023-05-03T09:23:55.413Z,11.00
2023-05-03T09:26:35.274Z,10.08
2023-05-03T09:29:04.615Z,10.15
2023-05-03T09:31:34.013Z,10.40
2023-05-03T09:34:00.967Z,9.93
2023-05-03T09:36:27.444Z,10.20
2023-05-03T09:38:54.936Z,10.33
2023-05-03T09:41:31.920Z,10.57
2023-05-03T09:43:58.257Z,10.77
2023-05-03T09:46:24.649Z,10.15
2023-05-03T09:48:51.047Z,10.96
2023-05-03T09:51:18.194Z,11.62
2023-05-03T09:53:44.946Z,11.18
2023-05-03T09:56:11.574Z,11.03
2023-05-03T09:58:39.630Z,10.69
2023-05-03T10:01:06.463Z,10.09
2023-05-03T10:03:44.846Z,10.23
2023-05-03T10:06:16.896Z,10.84
2023-05-03T10:08:51.608Z,10.59
2023-05-03T10:11:18.490Z,10.74
2023-05-03T10:13:45.285Z,10.19
2023-05-03T10:16:14.802Z,10.44
2023-05-03T10:18:47.973Z,10.63
2023-05-03T10:21:20.885Z,10.75
2023-05-03T10:24:12.821Z,10.40
2023-05-03T10:26:45.029Z,10.19
2023-05-03T10:29:36.054Z,9.80
2023-05-03T10:32:03.925Z,10.08
2023-05-03T10:34:35.519Z,9.88
2023-05-03T10:37:07.849Z,10.48
2023-05-03T10:39:36.244Z,10.51
2023-05-03T10:42:04.918Z,10.96
2023-05-03T10:44:50.626Z,10.91
2023-05-03T10:47:18.482Z,10.90
2023-05-03T10:49:45.334Z,10.97
2023-05-03T10:52:36.432Z,11.35
2023-05-03T10:55:08.498Z,11.59
2023-05-03T10:57:35.055Z,11.34
2023-05-03T11:00:01.464Z,11.88
2023-05-03T11:02:33.763Z,11.50
2023-05-03T11:05:04.813Z,11.67
2023-05-03T11:07:31.489Z,11.13
2023-05-03T11:09:57.789Z,11.21
2023-05-03T11:12:24.104Z,11.66
2023-05-03T11:14:50.718Z,11.28
2023-05-03T11:17:17.309Z,11.58
2023-05-03T11:19:43.921Z,12.26
2023-05-03T11:22:10.492Z,11.58
2023-05-03T11:24:36.787Z,12.01
2023-05-03T11:27:08.025Z,12.09
2023-05-03T11:29:35.199Z,12.25
2023-05-03T11:32:01.546Z,10.85
2023-05-03T11:34:27.918Z,11.65
2023-05-03T11:36:54.212Z,11.86
2023-05-03T11:39:21.094Z,11.45
2023-05-03T11:42:01.289Z,11.94
2023-05-03T11:44:27.673Z,11.74
2023-05-03T11:46:55.020Z,12.54
2023-05-03T11:49:21.428Z,12.41
2023-05-03T11:51:49.878Z,12.58
2023-05-03T11:54:25.014Z,12.67
2023-05-03T11:56:57.435Z,11.83
2023-05-03T11:59:38.194Z,12.66
2023-05-03T12:02:06.305Z,11.81
2023-05-03T12:04:33.444Z,12.53
2023-05-03T12:07:00.829Z,11.82
2023-05-03T12:09:29.265Z,12.35
2023-05-03T12:11:57.365Z,12.78
2023-05-03T12:14:24.955Z,13.04
2023-05-03T12:16:53.167Z,13.38
2023-05-03T12:19:32.694Z,13.18
2023-05-03T12:22:22.853Z,12.33
2023-05-03T12:24:49.059Z,12.27
2023-05-03T12:27:18.631Z,13.31
2023-05-03T12:29:47.439Z,13.93
2023-05-03T12:32:14.256Z,13.89
2023-05-03T12:34:41.435Z,13.37
2023-05-03T12:37:11.089Z,13.36
2023-05-03T12:39:39.527Z,13.26
2023-05-03T12:42:08.285Z,13.75
2023-05-03T12:44:35.672Z,13.99
2023-05-03T12:47:03.136Z,13.85
2023-05-03T12:49:30.062Z,13.63
2023-05-03T12:52:22.275Z,13.55
2023-05-03T12:54:43.938Z,13.45
2023-05-03T12:57:15.619Z,13.82
2023-05-03T12:59:45.168Z,14.24
2023-05-03T13:03:19.483Z,13.79
2023-05-03T13:05:12.092Z,13.74
2023-05-03T13:07:52.491Z,13.52
2023-05-03T13:10:22.387Z,13.41
2023-05-03T13:12:48.940Z,13.15
2023-05-03T13:15:15.248Z,12.75
2023-05-03T13:17:41.996Z,12.77
2023-05-03T13:20:09.594Z,13.46
2023-05-03T13:22:35.908Z,13.23
2023-05-03T13:25:02.427Z,13.46
2023-05-03T13:27:28.853Z,13.09
2023-05-03T13:29:55.249Z,13.46
2023-05-03T13:32:21.721Z,13.33
2023-05-03T13:34:48.144Z,13.44
2023-05-03T13:37:15.210Z,13.22
2023-05-03T13:39:41.527Z,13.79
2023-05-03T13:42:07.838Z,14.06
2023-05-03T13:44:34.171Z,13.48
2023-05-03T13:47:00.478Z,13.66
2023-05-03T13:49:26.887Z,12.91
2023-05-03T13:51:53.210Z,13.32
2023-05-03T13:54:19.936Z,13.31
2023-05-03T13:56:47.373Z,13.83
2023-05-03T13:59:14.100Z,13.27
2023-05-03T14:01:40.701Z,13.12
2023-05-03T14:04:07.130Z,13.07
2023-05-03T14:06:33.977Z,13.66
2023-05-03T14:09:00.694Z,13.63
2023-05-03T14:11:27.224Z,13.94
2023-05-03T14:13:57.577Z,13.87
2023-05-03T14:16:39.258Z,14.08
2023-05-03T14:19:07.174Z,14.46
2023-05-03T14:21:33.548Z,14.39
2023-05-03T14:24:00.810Z,14.24
2023-05-03T14:26:27.136Z,13.91
2023-05-03T14:28:53.504Z,13.50
2023-05-03T14:31:19.881Z,13.85
2023-05-03T14:33:46.560Z,13.88
2023-05-03T14:36:12.953Z,13.65
2023-05-03T14:38:39.260Z,13.83
2023-05-03T14:41:05.567Z,14.11
2023-05-03T14:43:32.049Z,14.35
2023-05-03T14:45:58.398Z,13.90
2023-05-03T14:48:24.762Z,14.21
2023-05-03T14:50:51.809Z,14.42
2023-05-03T14:53:18.229Z,14.07
2023-05-03T14:55:45.338Z,14.04
2023-05-03T14:58:11.816Z,13.86
2023-05-03T15:00:39.488Z,13.81
2023-05-03T15:03:06.666Z,13.68
2023-05-03T15:05:33.715Z,13.48
2023-05-03T15:08:00.038Z,14.02
2023-05-03T15:10:26.330Z,13.99
2023-05-03T15:12:53.503Z,13.84
2023-05-03T15:15:19.961Z,14.13
2023-05-03T15:17:46.307Z,14.22
2023-05-03T15:20:13.170Z,14.15
2023-05-03T15:22:39.506Z,13.88
2023-05-03T15:25:06.309Z,13.94
2023-05-03T15:27:33.726Z,13.91
2023-05-03T15:30:00.190Z,14.04
2023-05-03T15:32:26.517Z,13.78
2023-05-03T15:34:52.832Z,14.19
2023-05-03T15:37:19.217Z,14.53
2023-05-03T15:39:45.508Z,14.79
2023-05-03T15:42:11.836Z,14.74
2023-05-03T15:44:38.144Z,13.97
2023-05-03T15:47:04.537Z,14.02
2023-05-03T15:49:30.849Z,14.20
2023-05-03T15:51:57.154Z,14.17
2023-05-03T15:54:23.505Z,14.22
2023-05-03T15:56:49.897Z,13.37
2023-05-03T15:59:16.542Z,13.76
2023-05-03T16:01:42.874Z,14.39
2023-05-03T16:04:09.221Z,13.97
2023-05-03T16:06:35.547Z,14.17
2023-05-03T16:09:01.868Z,14.15
2023-05-03T16:11:28.507Z,14.35
2023-05-03T16:13:54.814Z,14.39
2023-05-03T16:16:21.339Z,14.33
2023-05-03T16:18:47.740Z,14.54
2023-05-03T16:21:14.079Z,14.45
2023-05-03T16:23:40.379Z,14.05
2023-05-03T16:26:13.260Z,14.12
2023-05-03T16:28:39.808Z,14.01
2023-05-03T16:31:06.118Z,13.85
2023-05-03T16:33:32.418Z,13.95
2023-05-03T16:35:58.727Z,13.87
2023-05-03T16:38:25.109Z,13.63
2023-05-03T16:40:51.409Z,13.75
2023-05-03T16:43:17.717Z,13.76
2023-05-03T16:45:44.056Z,13.57
2023-05-03T16:48:10.633Z,13.66
2023-05-03T16:50:37.041Z,13.92
2023-05-03T16:53:03.361Z,13.88
2023-05-03T16:55:29.785Z,13.67
2023-05-03T16:57:56.108Z,13.54
2023-05-03T17:00:22.478Z,13.47
2023-05-03T17:02:49.189Z,13.36
2023-05-03T17:05:15.649Z,13.68
2023-05-03T17:07:42.020Z,13.71
2023-05-03T17:10:09.054Z,13.60
2023-05-03T17:12:35.424Z,13.48
2023-05-03T17:15:01.852Z,13.42
2023-05-03T17:17:28.191Z,13.41
2023-05-03T17:19:54.518Z,13.15
2023-05-03T17:22:20.863Z,13.56
2023-05-03T17:24:47.157Z,13.43
2023-05-03T17:27:13.507Z,13.37
2023-05-03T17:29:39.886Z,13.26
2023-05-03T17:32:06.192Z,12.98
2023-05-03T17:34:32.495Z,13.10
2023-05-03T17:36:59.154Z,13.27
2023-05-03T17:39:25.463Z,13.39
2023-05-03T17:41:51.769Z,13.47
2023-05-03T17:44:18.077Z,13.40
2023-05-03T17:46:44.459Z,13.38
2023-05-03T17:49:10.777Z,13.07
2023-05-03T17:51:37.093Z,13.11
2023-05-03T17:54:03.552Z,13.01
2023-05-03T17:56:29.870Z,12.92
2023-05-03T17:58:56.224Z,13.02
2023-05-03T18:01:22.592Z,12.70
2023-05-03T18:03:49.410Z,12.58
2023-05-03T18:06:15.968Z,12.77
2023-05-03T18:08:42.372Z,12.59
2023-05-03T18:11:08.762Z,12.32
2023-05-03T18:13:35.089Z,12.27
2023-05-03T18:16:01.410Z,12.39
2023-05-03T18:18:27.741Z,12.27
2023-05-03T18:21:00.780Z,12.16
2023-05-03T18:23:27.237Z,12.12
2023-05-03T18:25:53.960Z,11.98
2023-05-03T18:28:20.810Z,12.03
2023-05-03T18:30:47.183Z,11.96
2023-05-03T18:33:13.572Z,11.87
2023-05-03T18:35:39.987Z,11.83
2023-05-03T18:38:06.330Z,11.66
2023-05-03T18:40:32.634Z,11.86
2023-05-03T18:42:58.933Z,11.57
2023-05-03T18:45:25.345Z,11.48
2023-05-03T18:47:51.724Z,11.56
2023-05-03T18:50:18.128Z,11.49
2023-05-03T18:52:44.435Z,11.34
2023-05-03T18:55:10.740Z,11.31
2023-05-03T18:57:37.042Z,11.28
2023-05-03T19:00:03.749Z,11.10
2023-05-03T19:02:30.097Z,11.11
2023-05-03T19:04:56.754Z,11.01
2023-05-03T19:07:23.104Z,11.01
2023-05-03T19:09:53.889Z,10.88
2023-05-03T19:12:20.208Z,10.85
2023-05-03T19:14:46.508Z,11.10
2023-05-03T19:17:12.919Z,10.67
2023-05-03T19:19:39.223Z,10.72
2023-05-03T19:22:05.550Z,10.59
2023-05-03T19:24:31.913Z,10.51
2023-05-03T19:26:58.302Z,10.55
2023-05-03T19:29:24.602Z,10.36
2023-05-03T19:31:53.105Z,10.44
2023-05-03T19:34:19.439Z,10.28
2023-05-03T19:36:48.644Z,10.07
2023-05-03T19:39:14.954Z,10.13
2023-05-03T19:41:41.545Z,10.14
2023-05-03T19:44:07.861Z,10.00
2023-05-03T19:46:34.266Z,9.89
2023-05-03T19:49:00.854Z,9.83
2023-05-03T19:51:27.204Z,9.89
2023-05-03T19:53:53.712Z,9.70
2023-05-03T19:56:20.072Z,9.71
2023-05-03T19:58:46.386Z,9.74
2023-05-03T20:01:12.797Z,9.60
2023-05-03T20:03:39.401Z,9.50
2023-05-03T20:06:05.821Z,9.55
2023-05-03T20:08:32.182Z,9.26
2023-05-03T20:10:58.718Z,9.25
2023-05-03T20:13:25.066Z,9.15
2023-05-03T20:15:51.470Z,9.10
2023-05-03T20:18:17.866Z,9.05
2023-05-03T20:20:44.373Z,8.99
2023-05-03T20:23:10.686Z,9.16
2023-05-03T20:25:37.193Z,8.94
2023-05-03T20:28:03.867Z,8.90
2023-05-03T20:30:30.292Z,8.70
2023-05-03T20:32:56.654Z,8.75
2023-05-03T20:35:22.985Z,8.79
2023-05-03T20:37:49.308Z,8.66
2023-05-03T20:40:15.974Z,8.44
2023-05-03T20:42:42.290Z,8.34
2023-05-03T20:45:08.951Z,8.22
2023-05-03T20:47:35.296Z,8.23
2023-05-03T20:50:02.058Z,8.19
2023-05-03T20:52:28.792Z,8.31
2023-05-03T20:54:55.089Z,8.40
2023-05-03T20:57:21.393Z,8.31
2023-05-03T20:59:47.798Z,8.35
2023-05-03T21:02:14.154Z,8.40
2023-05-03T21:04:40.472Z,8.56
2023-05-03T21:07:06.869Z,8.43
2023-05-03T21:09:33.218Z,8.55
2023-05-03T21:11:59.591Z,8.44
2023-05-03T21:14:25.899Z,8.26
2023-05-03T21:16:52.258Z,8.36
2023-05-03T21:19:18.598Z,8.23
2023-05-03T21:21:44.919Z,8.19
2023-05-03T21:24:11.229Z,7.98
2023-05-03T21:26:37.549Z,7.68
2023-05-03T21:29:03.841Z,7.42
2023-05-03T21:31:30.271Z,7.16
2023-05-03T21:33:56.612Z,6.93
2023-05-03T21:36:22.947Z,6.82
2023-05-03T21:38:52.220Z,6.75
2023-05-03T21:41:19.065Z,6.57
2023-05-03T21:43:45.359Z,6.74
2023-05-03T21:46:11.679Z,6.60
2023-05-03T21:48:38.054Z,6.81
2023-05-03T21:51:04.378Z,6.66
2023-05-03T21:53:31.195Z,6.79
2023-05-03T21:55:57.613Z,6.82
2023-05-03T21:58:23.977Z,6.90
2023-05-03T22:00:50.425Z,6.46
2023-05-03T22:03:16.859Z,6.57
2023-05-03T22:05:43.271Z,6.94
2023-05-03T22:08:09.589Z,6.96
2023-05-03T22:10:36.889Z,7.06
2023-05-03T22:13:03.223Z,7.21
2023-05-03T22:15:31.441Z,7.27
2023-05-03T22:17:57.967Z,7.28
2023-05-03T22:20:24.441Z,7.35
2023-05-03T22:22:50.795Z,7.35
2023-05-03T22:25:24.814Z,7.32
2023-05-03T22:27:51.849Z,7.34
2023-05-03T22:30:19.005Z,7.22
2023-05-03T22:32:45.508Z,7.16
2023-05-03T22:35:11.860Z,7.19
2023-05-03T22:37:38.446Z,7.25
2023-05-03T22:40:05.750Z,7.18
2023-05-03T22:42:32.286Z,7.21
2023-05-03T22:44:58.589Z,7.20
2023-05-03T22:47:24.930Z,7.09
2023-05-03T22:49:51.316Z,7.09
2023-05-03T22:52:17.637Z,7.08
2023-05-03T22:54:44.031Z,6.90
2023-05-03T22:57:10.400Z,6.95
2023-05-03T22:59:36.720Z,7.10
2023-05-03T23:02:03.022Z,7.05
2023-05-03T23:04:29.352Z,7.07
2023-05-03T23:06:55.661Z,6.97
2023-05-03T23:09:21.984Z,6.79
2023-05-03T23:11:48.289Z,6.72
2023-05-03T23:14:14.709Z,6.78
2023-05-03T23:16:41.087Z,6.81
2023-05-03T23:19:07.443Z,6.73
2023-05-03T23:21:33.747Z,6.73
2023-05-03T23:24:00.121Z,6.69
2023-05-03T23:26:26.440Z,6.66
2023-05-03T23:28:53.197Z,6.70
2023-05-03T23:31:19.820Z,6.75
2023-05-03T23:33:46.187Z,6.72
2023-05-03T23:36:12.501Z,6.71
2023-05-03T23:38:38.863Z,6.57
2023-05-03T23:41:05.278Z,6.62
2023-05-03T23:43:31.587Z,6.46
2023-05-03T23:45:57.927Z,6.23
2023-05-03T23:48:24.283Z,6.10
2023-05-03T23:50:50.801Z,6.27
2023-05-03T23:53:17.114Z,6.28
2023-05-03T23:55:43.411Z,6.27
2023-05-03T23:58:09.729Z,6.23
